createdAt,value
2018-11-23T00:00:24.685Z,68.64
2018-11-23T00:02:50.333Z,69.06
2018-11-23T00:05:15.437Z,68.55
2018-11-23T00:07:40.982Z,68.65
2018-11-23T00:10:07.307Z,68.75
2018-11-23T00:12:32.408Z,68.97
2018-11-23T00:14:57.528Z,68.81
2018-11-23T00:17:22.658Z,68.74
2018-11-23T00:19:47.711Z,68.63
2018-11-23T00:22:12.791Z,68.63
2018-11-23T00:24:37.875Z,68.65
2018-11-23T00:27:02.992Z,68.50
2018-11-23T00:29:28.095Z,68.70
2018-11-23T00:31:53.150Z,68.46
2018-11-23T00:34:18.291Z,68.87
2018-11-23T00:36:43.381Z,69.20
2018-11-23T00:39:08.532Z,69.04
2018-11-23T00:41:33.599Z,68.77
2018-11-23T00:43:58.674Z,68.64
2018-11-23T00:46:42.751Z,68.65
2018-11-23T00:49:07.805Z,69.14
2018-11-23T00:51:32.908Z,68.76
2018-11-23T00:53:58.010Z,68.98
2018-11-23T00:56:23.069Z,69.33
2018-11-23T00:58:48.175Z,68.76
2018-11-23T01:01:13.227Z,68.80
2018-11-23T01:03:38.305Z,69.09
2018-11-23T01:06:03.407Z,69.37
2018-11-23T01:08:28.480Z,68.93
2018-11-23T01:10:53.530Z,68.63
2018-11-23T01:13:18.627Z,68.97
2018-11-23T01:15:43.714Z,69.19
2018-11-23T01:18:08.833Z,69.38
2018-11-23T01:20:33.913Z,69.29
2018-11-23T01:22:59.341Z,69.29
2018-11-23T01:25:25.265Z,68.87
2018-11-23T01:27:51.423Z,68.95
2018-11-23T01:30:39.127Z,68.90
2018-11-23T01:33:04.225Z,68.77
2018-11-23T01:35:29.283Z,68.96
2018-11-23T01:37:54.378Z,68.92
2018-11-23T01:40:20.722Z,68.72
2018-11-23T01:42:46.271Z,68.95
2018-11-23T01:45:12.098Z,69.10
2018-11-23T01:47:37.156Z,69.65
2018-11-23T01:50:02.247Z,69.64
2018-11-23T01:52:27.344Z,68.84
2018-11-23T01:54:52.460Z,68.96
2018-11-23T01:57:17.523Z,69.18
2018-11-23T01:59:42.643Z,69.11
2018-11-23T02:02:07.982Z,69.08
2018-11-23T02:04:33.140Z,69.36
2018-11-23T02:06:58.246Z,69.16
2018-11-23T02:09:23.319Z,69.06
2018-11-23T02:11:49.971Z,68.91
2018-11-23T02:14:15.065Z,68.76
2018-11-23T02:16:40.192Z,68.80
2018-11-23T02:19:05.207Z,68.98
2018-11-23T02:21:30.288Z,69.00
2018-11-23T02:23:55.379Z,69.12
2018-11-23T02:26:20.434Z,69.25
2018-11-23T02:28:45.551Z,68.96
2018-11-23T02:31:10.965Z,68.92
2018-11-23T02:36:12.731Z,69.10
2018-11-23T02:38:37.906Z,68.95
2018-11-23T02:41:03.066Z,69.26
2018-11-23T02:43:28.158Z,69.00
2018-11-23T02:45:53.250Z,68.87
2018-11-23T02:48:18.379Z,68.77
2018-11-23T02:50:43.478Z,68.88
2018-11-23T02:53:08.690Z,69.27
2018-11-23T02:55:33.775Z,69.30
2018-11-23T02:57:58.861Z,69.10
2018-11-23T03:00:24.300Z,69.05
2018-11-23T03:02:49.388Z,68.70
2018-11-23T03:05:16.359Z,69.00
2018-11-23T03:07:41.865Z,69.01
2018-11-23T03:10:07.795Z,69.09
2018-11-23T03:12:32.903Z,69.19
2018-11-23T03:14:58.001Z,68.85
2018-11-23T03:17:23.133Z,68.58
2018-11-23T03:20:07.208Z,68.65
2018-11-23T03:22:32.277Z,69.61
2018-11-23T03:27:33.994Z,69.12
2018-11-23T03:29:59.133Z,69.01
2018-11-23T03:32:24.226Z,68.62
2018-11-23T03:34:49.326Z,68.73
2018-11-23T03:37:14.439Z,68.58
2018-11-23T03:39:39.536Z,68.60
2018-11-23T03:42:04.626Z,68.59
2018-11-23T03:44:29.681Z,68.94
2018-11-23T03:46:54.905Z,68.54
2018-11-23T03:49:19.972Z,68.61
2018-11-23T03:51:45.083Z,68.47
2018-11-23T03:54:10.183Z,69.39
2018-11-23T03:56:35.272Z,68.64
2018-11-23T03:59:00.401Z,68.78
2018-11-23T04:01:25.454Z,69.08
2018-11-23T04:03:50.493Z,68.60
2018-11-23T04:06:15.579Z,68.99
2018-11-23T04:08:40.640Z,68.54
2018-11-23T04:11:06.115Z,68.52
2018-11-23T04:13:31.208Z,68.60
2018-11-23T04:15:56.252Z,68.47
2018-11-23T04:18:21.301Z,68.50
2018-11-23T04:21:05.122Z,68.53
2018-11-23T04:23:49.213Z,68.66
2018-11-23T04:26:33.274Z,68.47
2018-11-23T04:28:58.391Z,68.54
2018-11-23T04:31:42.467Z,68.98
2018-11-23T04:34:27.118Z,68.32
2018-11-23T04:36:52.160Z,68.62
2018-11-23T04:39:17.238Z,69.56
2018-11-23T04:41:46.308Z,68.77
2018-11-23T04:44:07.585Z,69.57
2018-11-23T04:46:32.697Z,69.51
2018-11-23T04:48:57.814Z,69.17
2018-11-23T04:51:22.938Z,69.12
2018-11-23T04:53:48.026Z,68.71
2018-11-23T04:56:13.072Z,68.46
2018-11-23T04:58:38.163Z,69.07
2018-11-23T05:01:03.402Z,68.84
2018-11-23T05:03:28.461Z,68.65
2018-11-23T05:05:53.559Z,68.52
2018-11-23T05:08:18.654Z,69.00
2018-11-23T05:10:43.714Z,68.76
2018-11-23T05:13:08.790Z,68.48
2018-11-23T05:15:33.871Z,68.40
2018-11-23T05:17:58.946Z,68.57
2018-11-23T05:20:24.008Z,69.27
2018-11-23T05:22:49.089Z,68.72
2018-11-23T05:25:15.481Z,68.52
2018-11-23T05:27:40.581Z,68.88
2018-11-23T05:30:24.677Z,68.54
2018-11-23T05:32:49.756Z,68.46
2018-11-23T05:35:15.868Z,68.22
2018-11-23T05:40:19.078Z,68.22
2018-11-23T05:43:04.453Z,68.41
2018-11-23T05:45:47.171Z,69.29
2018-11-23T05:48:12.305Z,69.97
2018-11-23T05:50:37.404Z,68.67
2018-11-23T05:53:02.487Z,68.52
2018-11-23T05:55:27.561Z,68.50
2018-11-23T05:57:52.831Z,68.20
2018-11-23T06:00:37.654Z,69.21
2018-11-23T06:03:02.760Z,68.73
2018-11-23T06:05:27.846Z,68.89
2018-11-23T06:07:52.983Z,68.52
2018-11-23T06:10:19.260Z,68.72
2018-11-23T06:12:44.380Z,68.38
2018-11-23T06:15:18.794Z,68.22
2018-11-23T06:17:44.344Z,68.25
2018-11-23T06:20:11.998Z,68.13
2018-11-23T06:22:37.247Z,68.09
2018-11-23T06:25:02.360Z,68.42
2018-11-23T06:27:27.551Z,68.33
2018-11-23T06:29:52.601Z,68.48
2018-11-23T06:32:55.688Z,68.38
2018-11-23T06:35:20.763Z,68.56
2018-11-23T06:37:46.511Z,68.11
2018-11-23T06:40:11.868Z,68.11
2018-11-23T06:42:55.921Z,68.29
2018-11-23T06:45:21.258Z,68.49
2018-11-23T06:47:46.323Z,68.39
2018-11-23T06:52:50.889Z,68.81
2018-11-23T06:55:16.035Z,68.65
2018-11-23T06:57:41.538Z,68.64
2018-11-23T07:00:26.413Z,68.48
2018-11-23T07:02:51.512Z,68.24
2018-11-23T07:05:16.573Z,68.37
2018-11-23T07:08:00.629Z,68.37
2018-11-23T07:10:25.707Z,68.56
2018-11-23T07:12:50.804Z,68.42
2018-11-23T07:15:15.879Z,68.36
2018-11-23T07:17:41.564Z,68.42
2018-11-23T07:20:08.229Z,68.59
2018-11-23T07:22:33.277Z,68.33
2018-11-23T07:24:58.380Z,68.42
2018-11-23T07:27:42.932Z,68.74
2018-11-23T07:30:31.368Z,68.52
2018-11-23T07:32:56.566Z,68.61
2018-11-23T07:35:21.656Z,68.58
2018-11-23T07:37:46.711Z,69.05
2018-11-23T07:40:50.697Z,68.87
2018-11-23T07:43:15.761Z,68.90
2018-11-23T07:45:40.809Z,68.63
2018-11-23T07:48:06.352Z,68.93
2018-11-23T07:50:31.435Z,68.88
2018-11-23T07:52:56.518Z,68.42
2018-11-23T07:55:21.556Z,68.27
2018-11-23T07:57:46.596Z,68.78
2018-11-23T08:00:16.366Z,68.88
2018-11-23T08:02:41.875Z,68.44
2018-11-23T08:05:08.540Z,68.44
2018-11-23T08:07:33.606Z,68.85
2018-11-23T08:09:57.487Z,69.27
2018-11-23T08:12:22.614Z,68.75
2018-11-23T08:14:47.664Z,68.85
2018-11-23T08:17:12.730Z,69.00
2018-11-23T08:19:56.767Z,68.68
2018-11-23T08:22:21.859Z,69.47
2018-11-23T08:24:46.926Z,69.06
2018-11-23T08:27:11.993Z,68.71
2018-11-23T08:29:37.049Z,68.58
2018-11-23T08:32:02.079Z,69.50
2018-11-23T08:34:27.193Z,68.78
2018-11-23T08:37:04.844Z,68.58
2018-11-23T08:42:06.734Z,68.33
2018-11-23T08:44:31.846Z,68.93
2018-11-23T08:46:56.937Z,68.88
2018-11-23T08:49:22.049Z,68.75
2018-11-23T08:51:47.110Z,68.47
2018-11-23T08:54:12.202Z,68.65
2018-11-23T08:56:37.264Z,68.50
2018-11-23T08:59:02.387Z,68.43
2018-11-23T09:01:27.511Z,68.74
2018-11-23T09:06:36.786Z,69.18
2018-11-23T09:09:01.979Z,69.05
2018-11-23T09:11:27.248Z,68.42
2018-11-23T09:13:52.517Z,68.25
2018-11-23T09:16:17.614Z,68.16
2018-11-23T09:18:42.740Z,68.32
2018-11-23T09:21:08.473Z,68.63
2018-11-23T09:23:33.636Z,69.29
2018-11-23T09:25:58.695Z,68.50
2018-11-23T09:28:23.762Z,68.34
2018-11-23T09:30:48.864Z,68.01
2018-11-23T09:33:13.929Z,69.04
2018-11-23T09:35:39.073Z,68.34
2018-11-23T09:38:04.153Z,68.37
2018-11-23T09:40:30.367Z,67.99
2018-11-23T09:42:55.822Z,68.26
2018-11-23T09:45:39.568Z,68.37
2018-11-23T09:48:05.748Z,68.08
2018-11-23T09:50:30.786Z,67.93
2018-11-23T09:52:56.979Z,68.27
2018-11-23T09:55:22.716Z,67.84
2018-11-23T09:57:47.776Z,68.28
2018-11-23T10:00:33.375Z,68.39
2018-11-23T10:02:59.222Z,68.64
2018-11-23T10:05:25.000Z,68.08
2018-11-23T10:07:51.473Z,67.99
2018-11-23T10:10:17.359Z,68.42
2018-11-23T10:12:42.938Z,68.86
2018-11-23T10:15:08.788Z,68.51
2018-11-23T10:17:33.890Z,67.60
2018-11-23T10:19:58.990Z,68.35
2018-11-23T10:22:24.100Z,67.68
2018-11-23T10:24:49.348Z,67.76
2018-11-23T10:27:14.436Z,67.89
2018-11-23T10:29:39.504Z,68.22
2018-11-23T10:32:04.620Z,67.97
2018-11-23T10:34:29.639Z,67.77
2018-11-23T10:36:54.815Z,67.57
2018-11-23T10:39:19.847Z,67.89
2018-11-23T10:44:21.576Z,67.54
2018-11-23T10:46:46.665Z,67.58
2018-11-23T10:49:13.833Z,67.52
2018-11-23T10:51:38.937Z,68.73
2018-11-23T10:54:04.016Z,68.04
2018-11-23T10:59:06.321Z,67.62
2018-11-23T11:01:50.181Z,67.40
2018-11-23T11:04:33.964Z,67.87
2018-11-23T11:07:06.256Z,67.04
2018-11-23T11:09:31.348Z,67.54
2018-11-23T11:11:56.425Z,67.33
2018-11-23T11:14:21.559Z,66.93
2018-11-23T11:16:46.638Z,66.83
2018-11-23T11:19:11.715Z,66.57
2018-11-23T11:21:36.817Z,66.73
2018-11-23T11:24:01.908Z,67.43
2018-11-23T11:26:26.998Z,67.02
2018-11-23T11:28:52.112Z,67.14
2018-11-23T11:31:17.255Z,66.77
2018-11-23T11:33:53.813Z,66.54
2018-11-23T11:36:18.934Z,66.65
2018-11-23T11:38:44.020Z,66.39
2018-11-23T11:41:09.115Z,66.34
2018-11-23T11:43:34.216Z,66.45
2018-11-23T11:45:59.300Z,66.39
2018-11-23T11:48:24.418Z,66.39
2018-11-23T11:50:49.617Z,67.01
2018-11-23T11:53:14.711Z,66.60
2018-11-23T11:55:39.830Z,66.88
2018-11-23T11:58:04.941Z,66.73
2018-11-23T12:00:30.057Z,66.33
2018-11-23T12:02:55.639Z,67.20
2018-11-23T12:05:20.701Z,66.95
2018-11-23T12:07:45.802Z,66.70
2018-11-23T12:10:30.807Z,66.16
2018-11-23T12:12:55.900Z,66.28
2018-11-23T12:15:20.990Z,67.10
2018-11-23T12:17:46.073Z,66.53
2018-11-23T12:20:30.210Z,66.26
2018-11-23T12:22:55.307Z,66.42
2018-11-23T12:25:20.818Z,66.53
2018-11-23T12:27:45.951Z,67.13
2018-11-23T12:30:30.082Z,67.45
2018-11-23T12:32:55.753Z,67.15
2018-11-23T12:35:21.791Z,66.57
2018-11-23T12:37:46.935Z,66.51
2018-11-23T12:40:13.430Z,66.59
2018-11-23T12:42:38.581Z,66.75
2018-11-23T12:45:03.726Z,66.54
2018-11-23T12:47:28.795Z,66.60
2018-11-23T12:49:53.896Z,66.65
2018-11-23T12:52:18.994Z,66.21
2018-11-23T12:54:44.104Z,66.65
2018-11-23T12:57:09.246Z,68.33
2018-11-23T12:59:34.305Z,67.26
2018-11-23T13:01:59.425Z,66.61
2018-11-23T13:04:24.601Z,67.03
2018-11-23T13:06:49.685Z,66.83
2018-11-23T13:09:14.780Z,66.62
2018-11-23T13:11:41.937Z,66.51
2018-11-23T13:14:07.892Z,66.72
2018-11-23T13:16:33.025Z,66.66
2018-11-23T13:18:58.114Z,66.36
2018-11-23T13:21:23.204Z,66.51
2018-11-23T13:23:48.352Z,66.35
2018-11-23T13:26:13.461Z,66.42
2018-11-23T13:28:38.605Z,66.24
2018-11-23T13:31:03.683Z,66.01
2018-11-23T13:33:28.838Z,66.44
2018-11-23T13:35:54.177Z,66.62
2018-11-23T13:38:19.266Z,66.86
2018-11-23T13:40:44.422Z,68.27
2018-11-23T13:43:09.524Z,66.92
2018-11-23T13:45:35.099Z,66.76
2018-11-23T13:48:00.182Z,67.90
2018-11-23T13:50:25.927Z,68.36
2018-11-23T13:52:52.181Z,67.23
2018-11-23T13:55:17.328Z,67.13
2018-11-23T13:57:42.432Z,66.72
2018-11-23T14:00:31.154Z,67.06
2018-11-23T14:02:56.266Z,66.55
2018-11-23T14:05:40.050Z,66.74
2018-11-23T14:08:05.152Z,66.52
2018-11-23T14:13:11.342Z,66.69
2018-11-23T14:15:32.568Z,66.62
2018-11-23T14:17:58.808Z,67.34
2018-11-23T14:20:24.773Z,66.75
2018-11-23T14:22:49.867Z,66.58
2018-11-23T14:25:33.674Z,66.51
2018-11-23T14:27:59.214Z,66.85
2018-11-23T14:30:34.455Z,66.61
2018-11-23T14:33:00.064Z,66.40
2018-11-23T14:35:26.914Z,66.37
2018-11-23T14:37:52.779Z,66.67
2018-11-23T14:40:18.192Z,66.36
2018-11-23T14:42:44.244Z,66.64
2018-11-23T14:45:12.171Z,66.92
2018-11-23T14:47:37.243Z,66.47
2018-11-23T14:50:02.368Z,67.08
2018-11-23T14:52:27.568Z,66.46
2018-11-23T14:54:52.769Z,66.20
2018-11-23T14:57:17.842Z,66.30
2018-11-23T14:59:42.900Z,66.36
2018-11-23T15:02:08.047Z,66.39
2018-11-23T15:04:33.239Z,66.54
2018-11-23T15:06:58.381Z,66.26
2018-11-23T15:09:23.506Z,66.41
2018-11-23T15:11:48.609Z,66.46
2018-11-23T15:14:13.758Z,66.56
2018-11-23T15:16:38.852Z,66.87
2018-11-23T15:19:04.203Z,66.59
2018-11-23T15:21:29.207Z,66.57
2018-11-23T15:23:54.356Z,66.55
2018-11-23T15:26:19.506Z,66.79
2018-11-23T15:28:44.611Z,66.82
2018-11-23T15:31:09.762Z,66.88
2018-11-23T15:33:34.864Z,66.76
2018-11-23T15:35:59.983Z,66.86
2018-11-23T15:38:26.002Z,66.96
2018-11-23T15:40:51.143Z,67.00
2018-11-23T15:43:17.326Z,66.84
2018-11-23T15:45:42.456Z,67.26
2018-11-23T15:48:08.632Z,66.98
2018-11-23T15:50:35.367Z,66.99
2018-11-23T15:53:00.452Z,67.20
2018-11-23T15:55:27.641Z,67.26
2018-11-23T15:57:53.852Z,67.45
2018-11-23T16:00:30.790Z,67.42
2018-11-23T16:02:56.041Z,66.99
2018-11-23T16:05:21.308Z,67.35
2018-11-23T16:07:46.501Z,67.04
2018-11-23T16:10:32.135Z,67.35
2018-11-23T16:15:34.612Z,67.30
2018-11-23T16:18:11.990Z,67.21
2018-11-23T16:20:39.481Z,67.40
2018-11-23T16:23:08.614Z,67.11
2018-11-23T16:25:33.781Z,67.17
2018-11-23T16:28:00.324Z,67.31
2018-11-23T16:30:26.723Z,67.78
2018-11-23T16:32:52.964Z,67.38
2018-11-23T16:35:19.625Z,67.40
2018-11-23T16:37:44.801Z,67.37
2018-11-23T16:40:12.668Z,67.34
2018-11-23T16:42:37.993Z,67.33
2018-11-23T16:45:03.219Z,67.47
2018-11-23T16:47:28.364Z,67.49
2018-11-23T16:49:53.504Z,67.39
2018-11-23T16:52:18.674Z,67.41
2018-11-23T16:54:43.746Z,67.37
2018-11-23T16:57:08.906Z,67.40
2018-11-23T16:59:34.064Z,67.54
2018-11-23T17:01:59.141Z,67.47
2018-11-23T17:04:24.277Z,67.46
2018-11-23T17:06:49.349Z,68.04
2018-11-23T17:09:14.502Z,67.81
2018-11-23T17:11:39.632Z,67.83
2018-11-23T17:14:04.729Z,67.60
2018-11-23T17:16:29.869Z,67.84
2018-11-23T17:18:55.022Z,67.43
2018-11-23T17:21:20.174Z,67.51
2018-11-23T17:23:45.348Z,68.05
2018-11-23T17:26:10.508Z,68.09
2018-11-23T17:28:35.589Z,67.74
2018-11-23T17:31:00.698Z,67.46
2018-11-23T17:33:27.618Z,67.54
2018-11-23T17:35:52.723Z,67.58
2018-11-23T17:38:17.882Z,67.46
2018-11-23T17:40:43.283Z,67.61
2018-11-23T17:43:08.621Z,67.59
2018-11-23T17:45:34.329Z,67.74
2018-11-23T17:50:36.750Z,67.57
2018-11-23T17:53:01.966Z,67.42
2018-11-23T18:00:59.633Z,67.54
2018-11-23T18:03:24.741Z,67.40
2018-11-23T18:05:49.840Z,67.61
2018-11-23T18:08:14.973Z,67.51
2018-11-23T18:10:40.094Z,67.43
2018-11-23T18:13:05.229Z,67.52
2018-11-23T18:15:31.744Z,67.53
2018-11-23T18:18:08.552Z,67.57
2018-11-23T18:20:52.579Z,67.41
2018-11-23T18:23:17.708Z,67.42
2018-11-23T18:25:42.847Z,67.44
2018-11-23T18:28:07.947Z,67.39
2018-11-23T18:30:33.974Z,67.51
2018-11-23T18:32:59.054Z,67.28
2018-11-23T18:35:24.123Z,67.16
2018-11-23T18:37:49.224Z,67.25
2018-11-23T18:40:14.771Z,67.37
2018-11-23T18:42:39.989Z,67.46
2018-11-23T18:45:06.049Z,67.42
2018-11-23T18:47:32.151Z,67.76
2018-11-23T18:49:57.316Z,67.66
2018-11-23T18:52:22.404Z,67.56
2018-11-23T18:54:47.597Z,67.34
2018-11-23T18:57:12.688Z,67.43
2018-11-23T18:59:37.754Z,67.73
2018-11-23T19:02:14.902Z,67.48
2018-11-23T19:04:40.020Z,67.57
2018-11-23T19:07:08.125Z,67.56
2018-11-23T19:09:30.568Z,67.51
2018-11-23T19:11:55.668Z,67.61
2018-11-23T19:14:20.769Z,67.65
2018-11-23T19:16:45.907Z,67.60
2018-11-23T19:19:11.093Z,67.97
2018-11-23T19:21:36.192Z,67.71
2018-11-23T19:24:01.351Z,67.83
2018-11-23T19:26:26.462Z,67.80
2018-11-23T19:28:51.628Z,67.94
2018-11-23T19:31:16.717Z,67.83
2018-11-23T19:33:41.820Z,67.99
2018-11-23T19:36:07.029Z,67.99
2018-11-23T19:38:32.124Z,67.72
2018-11-23T19:40:57.243Z,67.67
2018-11-23T19:43:22.347Z,67.90
2018-11-23T19:45:47.472Z,67.88
2018-11-23T19:48:12.578Z,68.09
2018-11-23T19:50:37.715Z,67.98
2018-11-23T19:53:02.917Z,68.08
2018-11-23T19:55:28.079Z,68.00
2018-11-23T19:57:53.177Z,68.15
2018-11-23T20:00:22.208Z,67.98
2018-11-23T20:03:06.263Z,67.88
2018-11-23T20:05:31.495Z,68.19
2018-11-23T20:07:57.456Z,67.96
2018-11-23T20:10:23.329Z,67.59
2018-11-23T20:12:49.559Z,67.93
2018-11-23T20:15:16.081Z,67.98
2018-11-23T20:17:41.697Z,67.96
2018-11-23T20:20:08.399Z,67.87
2018-11-23T20:22:33.562Z,67.84
2018-11-23T20:24:58.734Z,67.81
2018-11-23T20:27:23.880Z,67.92
2018-11-23T20:29:49.064Z,68.06
2018-11-23T20:32:14.159Z,68.23
2018-11-23T20:34:39.321Z,68.20
2018-11-23T20:37:04.537Z,68.36
2018-11-23T20:39:29.679Z,68.32
2018-11-23T20:41:54.829Z,68.17
2018-11-23T20:44:20.015Z,68.16
2018-11-23T20:46:45.157Z,68.15
2018-11-23T20:49:10.358Z,68.25
2018-11-23T20:51:35.472Z,68.39
2018-11-23T20:54:00.644Z,68.63
2018-11-23T20:56:25.819Z,68.45
2018-11-23T20:58:50.919Z,68.12
2018-11-23T21:01:16.077Z,68.37
2018-11-23T21:03:41.226Z,68.20
2018-11-23T21:06:06.515Z,68.29
2018-11-23T21:08:31.721Z,68.49
2018-11-23T21:10:56.831Z,68.20
2018-11-23T21:13:21.988Z,68.21
2018-11-23T21:15:47.056Z,67.97
2018-11-23T21:18:23.699Z,68.08
2018-11-23T21:20:48.828Z,68.35
2018-11-23T21:23:14.012Z,67.96
2018-11-23T21:25:39.195Z,68.13
2018-11-23T21:28:04.263Z,68.14
2018-11-23T21:30:29.352Z,68.17
2018-11-23T21:32:55.655Z,67.91
2018-11-23T21:35:20.871Z,67.96
2018-11-23T21:40:24.743Z,67.70
2018-11-23T21:42:49.851Z,67.97
2018-11-23T21:45:18.835Z,68.53
2018-11-23T21:47:43.957Z,68.34
2018-11-23T21:50:28.106Z,68.00
2018-11-23T21:52:53.182Z,67.82
2018-11-23T21:55:37.368Z,67.97
2018-11-23T21:58:02.752Z,68.11
2018-11-23T22:00:27.895Z,67.96
2018-11-23T22:02:52.962Z,68.17
2018-11-23T22:05:18.119Z,68.16
2018-11-23T22:07:43.318Z,67.75
2018-11-23T22:10:15.173Z,67.88
2018-11-23T22:12:40.278Z,67.74
2018-11-23T22:15:07.891Z,67.86
2018-11-23T22:20:13.067Z,67.58
2018-11-23T22:22:38.145Z,67.62
2018-11-23T22:25:03.230Z,67.74
2018-11-23T22:27:28.306Z,67.71
2018-11-23T22:29:53.422Z,67.61
2018-11-23T22:32:18.564Z,67.68
2018-11-23T22:34:43.691Z,67.87
2018-11-23T22:37:08.798Z,68.23
2018-11-23T22:39:33.893Z,67.86
2018-11-23T22:41:58.993Z,67.54
2018-11-23T22:44:24.103Z,67.66
2018-11-23T22:46:49.217Z,68.03
2018-11-23T22:49:14.301Z,67.69
2018-11-23T22:51:58.473Z,67.82
2018-11-23T22:54:23.541Z,67.45
2018-11-23T22:56:48.632Z,68.01
2018-11-23T22:59:13.748Z,68.33
2018-11-23T23:01:38.836Z,68.70
2018-11-23T23:04:03.997Z,67.68
2018-11-23T23:06:29.104Z,67.55
2018-11-23T23:08:54.463Z,67.52
2018-11-23T23:11:19.610Z,67.48
2018-11-23T23:14:22.382Z,67.50
2018-11-23T23:16:47.464Z,67.39
2018-11-23T23:19:12.577Z,67.69
2018-11-23T23:21:37.706Z,67.52
2018-11-23T23:24:02.790Z,67.63
2018-11-23T23:26:27.902Z,67.83
2018-11-23T23:28:53.074Z,67.94
2018-11-23T23:31:18.213Z,68.09
2018-11-23T23:33:43.371Z,68.63
2018-11-23T23:36:08.391Z,68.16
2018-11-23T23:38:33.472Z,67.89
2018-11-23T23:40:58.572Z,68.06
2018-11-23T23:43:23.702Z,69.59
2018-11-23T23:45:48.811Z,69.48
2018-11-23T23:48:13.905Z,69.64
2018-11-23T23:50:39.028Z,68.91
2018-11-23T23:53:04.139Z,68.88
2018-11-23T23:55:29.293Z,68.93
2018-11-23T23:57:54.411Z,68.89
